Time;durP1;ratioP1;P1;durP2;ratioP2;P2;SDS_P1;SDS_P2;PMS_P1;PMS_P2;Temp;Humidity;BMP_temperature;BMP_pressure;BME280_temperature;BME280_humidity;BME280_pressure;Samples;Min_cycle;Max_cycle;Signal;HPM_P1;HPM_P2
2024/03/15 00:01:34;;;;;;;11.48;4.40;;;;;;;;;;4998257;28;20207;-64
2024/03/15 00:04:00;;;;;;;17.73;7.70;;;;;;;;;;4995364;28;20130;-64
2024/03/15 00:06:29;;;;;;;12.52;5.80;;;;;;;;;;5008337;28;20123;-64
2024/03/15 00:08:56;;;;;;;14.13;6.70;;;;;;;;;;5011498;28;20056;-64
2024/03/15 00:11:23;;;;;;;14.65;5.85;;;;;;;;;;5010032;28;20057;-64
2024/03/15 00:13:52;;;;;;;15.15;5.00;;;;;;;;;;4979627;28;20193;-64
2024/03/15 00:16:19;;;;;;;9.90;4.82;;;;;;;;;;5008577;28;20052;-64
2024/03/15 00:18:45;;;;;;;9.90;4.50;;;;;;;;;;4982623;28;20052;-65
2024/03/15 00:21:16;;;;;;;9.07;4.82;;;;;;;;;;5000199;28;20058;-64
2024/03/15 00:23:43;;;;;;;12.27;4.57;;;;;;;;;;4991615;28;20061;-65
2024/03/15 00:26:10;;;;;;;9.85;4.85;;;;;;;;;;4980888;28;20124;-64
2024/03/15 00:28:37;;;;;;;12.35;4.75;;;;;;;;;;4999584;28;20064;-64
2024/03/15 00:31:04;;;;;;;10.00;4.50;;;;;;;;;;5002730;28;20095;-63
2024/03/15 00:33:31;;;;;;;10.32;4.65;;;;;;;;;;5013497;28;20058;-65
2024/03/15 00:35:58;;;;;;;9.35;3.85;;;;;;;;;;4993750;28;20199;-64
2024/03/15 00:38:27;;;;;;;8.57;3.95;;;;;;;;;;5028840;28;20057;-65
2024/03/15 00:40:54;;;;;;;7.63;3.08;;;;;;;;;;4998998;28;20053;-65
2024/03/15 00:43:21;;;;;;;7.10;3.83;;;;;;;;;;4988800;28;20071;-64
2024/03/15 00:45:48;;;;;;;11.73;4.00;;;;;;;;;;4943136;28;20053;-63
2024/03/15 00:48:15;;;;;;;10.02;3.40;;;;;;;;;;4893192;28;20120;-65
2024/03/15 00:50:43;;;;;;;7.53;3.70;;;;;;;;;;4988578;28;20084;-65
2024/03/15 00:53:10;;;;;;;7.85;3.45;;;;;;;;;;4969807;28;20064;-65
2024/03/15 00:55:37;;;;;;;6.63;3.55;;;;;;;;;;4981850;28;20053;-66
2024/03/15 00:58:05;;;;;;;10.27;3.80;;;;;;;;;;4949185;28;20690;-64
2024/03/15 01:00:33;;;;;;;11.18;3.90;;;;;;;;;;4969233;28;20250;-65
2024/03/15 01:03:00;;;;;;;7.85;3.88;;;;;;;;;;4983710;28;20057;-65
2024/03/15 01:05:27;;;;;;;7.95;3.78;;;;;;;;;;4966268;28;21137;-65
2024/03/15 01:07:54;;;;;;;9.93;4.38;;;;;;;;;;4980289;28;20053;-66
2024/03/15 01:10:21;;;;;;;10.77;4.90;;;;;;;;;;4987002;28;20080;-65
2024/03/15 01:12:48;;;;;;;10.77;4.70;;;;;;;;;;4984279;28;20148;-65
2024/03/15 01:15:15;;;;;;;9.25;4.95;;;;;;;;;;4943178;28;20049;-64
2024/03/15 01:17:44;;;;;;;9.63;4.95;;;;;;;;;;4982760;28;20149;-65
2024/03/15 01:20:11;;;;;;;10.05;5.03;;;;;;;;;;4996294;28;20065;-66
2024/03/15 01:22:41;;;;;;;11.20;4.45;;;;;;;;;;4953259;28;20137;-64
2024/03/15 01:25:08;;;;;;;8.40;4.30;;;;;;;;;;4946669;28;21265;-65
2024/03/15 01:27:35;;;;;;;10.10;3.67;;;;;;;;;;4983464;28;20081;-66
2024/03/15 01:30:02;;;;;;;8.20;4.07;;;;;;;;;;4949069;28;20062;-65
2024/03/15 01:32:29;;;;;;;9.98;4.15;;;;;;;;;;4968682;28;20054;-65
2024/03/15 01:34:56;;;;;;;10.25;3.90;;;;;;;;;;4939379;28;20054;-67
2024/03/15 01:37:23;;;;;;;8.52;3.50;;;;;;;;;;4984685;28;20085;-64
2024/03/15 01:39:50;;;;;;;7.15;3.38;;;;;;;;;;4999041;28;20062;-65
2024/03/15 01:42:19;;;;;;;8.75;3.97;;;;;;;;;;4968865;28;20080;-63
2024/03/15 01:44:50;;;;;;;8.38;3.85;;;;;;;;;;4961771;28;20061;-64
2024/03/15 01:47:17;;;;;;;10.75;3.80;;;;;;;;;;4951922;28;20129;-65
2024/03/15 01:49:45;;;;;;;11.57;4.93;;;;;;;;;;4951638;28;20045;-64
2024/03/15 01:52:14;;;;;;;7.13;3.28;;;;;;;;;;4964885;28;20109;-64
2024/03/15 01:54:41;;;;;;;11.93;4.53;;;;;;;;;;4973797;28;20119;-65
2024/03/15 01:57:08;;;;;;;11.63;3.88;;;;;;;;;;4986611;28;20057;-65
2024/03/15 01:59:35;;;;;;;13.10;3.63;;;;;;;;;;4985735;28;20065;-64
2024/03/15 02:02:02;;;;;;;8.65;3.90;;;;;;;;;;4977179;28;20312;-65
2024/03/15 02:04:30;;;;;;;10.48;3.97;;;;;;;;;;4962802;28;20081;-64
2024/03/15 02:06:57;;;;;;;13.80;3.72;;;;;;;;;;4961902;28;20058;-66
2024/03/15 02:09:24;;;;;;;6.40;3.17;;;;;;;;;;4983959;28;20061;-65
2024/03/15 02:11:52;;;;;;;7.45;3.25;;;;;;;;;;4977259;28;20049;-65
2024/03/15 02:14:20;;;;;;;11.30;3.92;;;;;;;;;;4980723;28;20096;-65
2024/03/15 02:16:47;;;;;;;8.75;3.53;;;;;;;;;;4951819;28;20054;-65
2024/03/15 02:19:14;;;;;;;10.48;3.80;;;;;;;;;;4966159;28;20054;-65
2024/03/15 02:21:41;;;;;;;8.82;3.80;;;;;;;;;;4983326;28;20068;-64
2024/03/15 02:24:08;;;;;;;8.25;3.55;;;;;;;;;;4958394;28;20054;-66
2024/03/15 02:26:35;;;;;;;7.57;3.55;;;;;;;;;;4981208;28;20049;-65
2024/03/15 02:29:05;;;;;;;7.65;3.25;;;;;;;;;;4951174;28;20116;-64
2024/03/15 02:31:32;;;;;;;10.52;4.10;;;;;;;;;;4969756;28;20073;-64
2024/03/15 02:34:00;;;;;;;10.73;3.65;;;;;;;;;;4919641;28;20116;-65
2024/03/15 02:36:27;;;;;;;11.43;3.35;;;;;;;;;;4982368;28;20057;-64
2024/03/15 02:38:54;;;;;;;8.68;3.85;;;;;;;;;;4952483;28;20124;-65
2024/03/15 02:41:24;;;;;;;9.32;3.30;;;;;;;;;;4984341;28;20065;-65
2024/03/15 02:43:56;;;;;;;8.68;3.60;;;;;;;;;;4962118;28;20060;-66
2024/03/15 02:46:22;;;;;;;7.70;3.22;;;;;;;;;;4966607;28;20065;-65
2024/03/15 02:48:49;;;;;;;6.38;2.92;;;;;;;;;;5000509;28;20146;-65
2024/03/15 02:51:16;;;;;;;8.13;2.97;;;;;;;;;;4984607;28;20046;-65
2024/03/15 02:53:44;;;;;;;9.68;3.42;;;;;;;;;;4947062;28;20049;-65
2024/03/15 02:56:11;;;;;;;9.77;3.35;;;;;;;;;;4947485;28;20066;-64
2024/03/15 02:58:37;;;;;;;7.18;3.15;;;;;;;;;;4982830;28;20060;-64
2024/03/15 03:01:05;;;;;;;9.00;3.60;;;;;;;;;;4970235;28;20089;-64
2024/03/15 03:03:32;;;;;;;6.47;3.23;;;;;;;;;;4992918;28;20060;-66
2024/03/15 03:05:59;;;;;;;7.93;3.28;;;;;;;;;;4933991;28;20594;-65
2024/03/15 03:08:25;;;;;;;6.00;3.08;;;;;;;;;;4953288;28;20054;-65
2024/03/15 03:10:52;;;;;;;10.18;3.22;;;;;;;;;;4982725;28;20054;-64
2024/03/15 03:13:21;;;;;;;8.35;3.45;;;;;;;;;;4961827;28;20050;-65
2024/03/15 03:15:48;;;;;;;8.70;3.28;;;;;;;;;;4950679;28;20050;-64
2024/03/15 03:18:15;;;;;;;7.57;3.25;;;;;;;;;;4965048;28;20050;-65
2024/03/15 03:20:42;;;;;;;7.03;3.05;;;;;;;;;;4985460;28;20107;-65
2024/03/15 03:23:09;;;;;;;8.85;3.55;;;;;;;;;;4950615;28;20066;-65
2024/03/15 03:25:37;;;;;;;6.43;2.88;;;;;;;;;;4968761;28;20066;-64
2024/03/15 03:28:04;;;;;;;8.82;3.78;;;;;;;;;;4977967;28;20058;-64
2024/03/15 03:30:31;;;;;;;6.85;3.33;;;;;;;;;;4983615;28;20046;-65
2024/03/15 03:32:58;;;;;;;6.88;3.33;;;;;;;;;;4983725;28;20064;-65
2024/03/15 03:35:25;;;;;;;6.60;3.08;;;;;;;;;;4949204;28;20062;-65
2024/03/15 03:37:52;;;;;;;9.38;3.33;;;;;;;;;;4946240;28;20094;-65
2024/03/15 03:40:24;;;;;;;11.32;3.40;;;;;;;;;;4953945;28;20041;-65
2024/03/15 03:42:51;;;;;;;6.68;3.03;;;;;;;;;;4985799;28;20061;-65
2024/03/15 03:45:19;;;;;;;9.88;3.28;;;;;;;;;;4944208;28;20054;-66
2024/03/15 03:47:46;;;;;;;8.90;3.60;;;;;;;;;;4950564;28;20083;-66
2024/03/15 03:50:13;;;;;;;8.82;3.55;;;;;;;;;;4983168;28;20115;-65
2024/03/15 03:52:40;;;;;;;9.80;3.03;;;;;;;;;;4955099;28;20124;-65
2024/03/15 03:55:07;;;;;;;6.68;3.13;;;;;;;;;;4975656;28;20050;-66
2024/03/15 03:57:35;;;;;;;7.35;3.38;;;;;;;;;;4986474;28;20178;-64
2024/03/15 04:00:13;;;;;;;7.18;3.05;;;;;;;;;;4964023;28;20061;-65
2024/03/15 04:02:43;;;;;;;9.05;3.42;;;;;;;;;;4959573;28;20118;-65
2024/03/15 04:05:10;;;;;;;11.13;3.50;;;;;;;;;;4982861;28;20054;-64
2024/03/15 04:07:39;;;;;;;9.77;3.10;;;;;;;;;;4956364;28;20248;-65
2024/03/15 04:10:10;;;;;;;8.23;3.53;;;;;;;;;;4957165;28;20058;-65
2024/03/15 04:12:37;;;;;;;10.48;3.90;;;;;;;;;;4955953;28;20319;-65
2024/03/15 04:15:04;;;;;;;8.63;3.20;;;;;;;;;;4967020;28;20216;-65
2024/03/15 04:17:31;;;;;;;11.15;3.30;;;;;;;;;;4987980;28;20061;-65
2024/03/15 04:19:58;;;;;;;9.05;3.80;;;;;;;;;;4949065;28;20054;-66
2024/03/15 04:22:25;;;;;;;12.13;4.00;;;;;;;;;;4972274;28;20072;-66
2024/03/15 04:24:52;;;;;;;11.52;3.33;;;;;;;;;;4999747;28;20061;-65
2024/03/15 04:27:19;;;;;;;7.38;3.05;;;;;;;;;;4984981;28;20041;-65
2024/03/15 04:29:46;;;;;;;6.18;3.05;;;;;;;;;;4984150;28;20065;-65
2024/03/15 04:32:13;;;;;;;7.43;3.42;;;;;;;;;;4966386;28;20573;-65
2024/03/15 04:34:40;;;;;;;17.45;4.00;;;;;;;;;;4938486;28;20070;-66
2024/03/15 04:37:08;;;;;;;10.00;3.00;;;;;;;;;;4965394;28;20049;-65
2024/03/15 04:39:35;;;;;;;9.50;3.00;;;;;;;;;;4986194;28;20054;-65
2024/03/15 04:42:03;;;;;;;7.75;3.53;;;;;;;;;;4964638;28;20901;-65
2024/03/15 04:44:33;;;;;;;9.45;3.78;;;;;;;;;;4968890;28;20057;-66
2024/03/15 04:47:00;;;;;;;7.32;3.40;;;;;;;;;;4970100;28;20073;-65
2024/03/15 04:49:28;;;;;;;11.60;3.47;;;;;;;;;;4954095;28;20058;-65
2024/03/15 04:51:55;;;;;;;11.65;3.60;;;;;;;;;;4981062;28;20050;-65
2024/03/15 04:54:22;;;;;;;7.78;3.42;;;;;;;;;;4982593;28;20062;-64
2024/03/15 04:56:49;;;;;;;6.75;2.72;;;;;;;;;;4983723;28;20065;-64
2024/03/15 04:59:16;;;;;;;7.45;3.00;;;;;;;;;;5010811;28;20060;-65
2024/03/15 05:01:43;;;;;;;11.20;3.47;;;;;;;;;;4952907;28;20054;-65
2024/03/15 05:04:10;;;;;;;9.60;3.58;;;;;;;;;;4943516;28;21811;-64
2024/03/15 05:06:37;;;;;;;10.00;3.60;;;;;;;;;;4974640;28;20128;-64
2024/03/15 05:09:04;;;;;;;11.40;3.22;;;;;;;;;;4984529;28;20057;-64
2024/03/15 05:11:31;;;;;;;6.43;3.10;;;;;;;;;;4952748;28;20065;-64
2024/03/15 05:13:58;;;;;;;9.63;3.47;;;;;;;;;;4944137;28;20157;-64
2024/03/15 05:16:25;;;;;;;7.90;3.35;;;;;;;;;;4985884;28;20421;-64
2024/03/15 05:18:52;;;;;;;8.50;3.20;;;;;;;;;;4985383;28;20060;-64
2024/03/15 05:21:19;;;;;;;9.48;3.58;;;;;;;;;;4952732;28;20043;-64
2024/03/15 05:23:47;;;;;;;7.53;3.25;;;;;;;;;;4959999;28;20160;-64
2024/03/15 05:26:14;;;;;;;6.88;3.20;;;;;;;;;;4966721;28;20064;-63
2024/03/15 05:28:42;;;;;;;6.78;2.90;;;;;;;;;;4954510;28;20156;-64
2024/03/15 05:31:09;;;;;;;9.48;3.05;;;;;;;;;;4950638;28;20057;-64
2024/03/15 05:33:37;;;;;;;10.33;3.30;;;;;;;;;;4962188;28;20071;-64
2024/03/15 05:36:04;;;;;;;9.30;3.28;;;;;;;;;;4960076;28;20263;-65
2024/03/15 05:38:33;;;;;;;12.35;4.65;;;;;;;;;;4987609;28;20078;-65
2024/03/15 05:41:01;;;;;;;9.60;3.97;;;;;;;;;;4983452;28;20042;-64
2024/03/15 05:43:31;;;;;;;6.90;2.97;;;;;;;;;;4946719;28;20050;-65
2024/03/15 05:45:58;;;;;;;6.82;2.95;;;;;;;;;;4944767;28;20216;-65
2024/03/15 05:48:25;;;;;;;10.80;3.00;;;;;;;;;;4981215;28;20127;-64
2024/03/15 05:50:52;;;;;;;9.52;2.95;;;;;;;;;;4985543;28;20058;-64
2024/03/15 05:53:19;;;;;;;10.45;3.30;;;;;;;;;;4978038;28;20072;-65
2024/03/15 05:55:48;;;;;;;6.22;2.65;;;;;;;;;;4937735;28;20046;-64
2024/03/15 05:58:15;;;;;;;8.10;3.03;;;;;;;;;;4965406;28;20062;-64
2024/03/15 06:00:42;;;;;;;7.85;3.30;;;;;;;;;;4951974;28;20077;-64
2024/03/15 06:03:11;;;;;;;6.80;2.63;;;;;;;;;;4986135;28;20145;-66
2024/03/15 06:05:38;;;;;;;10.43;4.57;;;;;;;;;;4939993;28;20058;-64
2024/03/15 06:08:06;;;;;;;16.85;7.13;;;;;;;;;;4977768;28;20081;-63
2024/03/15 06:10:35;;;;;;;9.13;4.00;;;;;;;;;;5000835;28;20451;-64
2024/03/15 06:13:02;;;;;;;8.70;3.30;;;;;;;;;;4948497;28;20046;-64
2024/03/15 06:15:33;;;;;;;11.60;3.38;;;;;;;;;;4954686;28;20113;-64
2024/03/15 06:18:00;;;;;;;11.75;3.10;;;;;;;;;;4981638;28;20160;-64
2024/03/15 06:20:27;;;;;;;7.60;2.95;;;;;;;;;;4982865;28;20147;-64
2024/03/15 06:22:54;;;;;;;11.05;2.90;;;;;;;;;;4982396;28;20050;-64
2024/03/15 06:25:21;;;;;;;9.05;3.00;;;;;;;;;;4953044;28;20038;-65
2024/03/15 06:27:48;;;;;;;7.75;3.00;;;;;;;;;;4965345;28;20077;-65
2024/03/15 06:30:18;;;;;;;18.17;6.60;;;;;;;;;;4974989;28;20508;-64
2024/03/15 06:32:46;;;;;;;6.90;2.80;;;;;;;;;;4983004;28;20064;-64
2024/03/15 06:35:27;;;;;;;9.83;3.20;;;;;;;;;;4957461;28;20041;-64
2024/03/15 06:38:07;;;;;;;7.43;2.83;;;;;;;;;;4968124;28;20153;-64
2024/03/15 06:40:45;;;;;;;6.20;3.35;;;;;;;;;;4957470;28;20054;-64
2024/03/15 06:43:25;;;;;;;10.70;3.30;;;;;;;;;;4982364;28;20069;-63
2024/03/15 06:46:08;;;;;;;5.95;2.92;;;;;;;;;;4942652;28;20057;-65
2024/03/15 06:48:44;;;;;;;8.48;3.13;;;;;;;;;;4985817;28;20069;-64
2024/03/15 06:53:56;;;;;;;6.47;3.08;;;;;;;;;;4972525;28;20054;-64
2024/03/15 06:56:23;;;;;;;9.52;3.38;;;;;;;;;;4982242;28;20045;-64
2024/03/15 06:58:50;;;;;;;9.25;3.45;;;;;;;;;;4951022;28;20054;-65
2024/03/15 07:01:19;;;;;;;8.60;2.95;;;;;;;;;;4966309;28;20089;-65
2024/03/15 07:03:49;;;;;;;8.85;3.28;;;;;;;;;;4961085;28;20120;-65
2024/03/15 07:06:20;;;;;;;9.13;3.30;;;;;;;;;;4973600;28;20053;-65
2024/03/15 07:08:49;;;;;;;7.18;3.22;;;;;;;;;;4983486;28;20081;-65
2024/03/15 07:11:16;;;;;;;8.57;3.55;;;;;;;;;;5000733;28;20061;-65
2024/03/15 07:13:46;;;;;;;12.20;3.88;;;;;;;;;;4933447;28;20085;-65
2024/03/15 07:16:16;;;;;;;8.63;3.70;;;;;;;;;;4966231;28;20050;-64
2024/03/15 07:18:48;;;;;;;7.03;3.53;;;;;;;;;;4955112;28;20046;-65
2024/03/15 07:21:16;;;;;;;6.78;3.08;;;;;;;;;;4949958;28;20147;-64
2024/03/15 07:23:43;;;;;;;12.77;3.28;;;;;;;;;;4938860;28;21063;-65
2024/03/15 07:26:10;;;;;;;8.02;3.13;;;;;;;;;;4963932;28;20046;-64
2024/03/15 07:28:38;;;;;;;8.48;3.20;;;;;;;;;;4954511;28;20049;-64
2024/03/15 07:31:06;;;;;;;7.25;3.70;;;;;;;;;;4986134;28;20124;-64
2024/03/15 07:33:34;;;;;;;12.33;4.37;;;;;;;;;;4967458;28;20169;-64
2024/03/15 07:36:01;;;;;;;7.43;3.10;;;;;;;;;;4951265;28;20054;-65
2024/03/15 07:38:28;;;;;;;6.78;2.80;;;;;;;;;;4967207;28;20054;-64
2024/03/15 07:40:55;;;;;;;8.07;3.08;;;;;;;;;;4972871;28;20050;-63
2024/03/15 07:43:22;;;;;;;5.88;2.97;;;;;;;;;;4970770;28;20416;-64
2024/03/15 07:45:49;;;;;;;10.82;3.53;;;;;;;;;;4881663;28;20163;-65
2024/03/15 07:48:16;;;;;;;5.40;2.28;;;;;;;;;;4949449;28;20062;-64
2024/03/15 07:50:43;;;;;;;8.70;3.40;;;;;;;;;;4971442;28;20049;-63
2024/03/15 07:53:11;;;;;;;7.43;2.88;;;;;;;;;;4986069;28;20132;-65
2024/03/15 07:55:40;;;;;;;7.43;3.30;;;;;;;;;;4958742;28;20050;-64
2024/03/15 07:58:08;;;;;;;4.28;2.33;;;;;;;;;;4984985;28;20144;-64
2024/03/15 08:00:36;;;;;;;8.60;3.03;;;;;;;;;;4988242;28;20038;-64
2024/03/15 08:03:04;;;;;;;8.10;2.70;;;;;;;;;;4955801;28;20049;-64
2024/03/15 08:05:33;;;;;;;6.60;2.33;;;;;;;;;;4972534;28;20171;-64
2024/03/15 08:08:00;;;;;;;5.43;2.38;;;;;;;;;;4962684;28;20080;-66
2024/03/15 08:10:27;;;;;;;6.35;2.85;;;;;;;;;;4987775;28;20054;-64
2024/03/15 08:12:56;;;;;;;8.15;2.70;;;;;;;;;;4970089;28;20054;-64
2024/03/15 08:15:25;;;;;;;11.35;2.58;;;;;;;;;;4976695;28;20157;-63
2024/03/15 08:17:53;;;;;;;10.48;2.63;;;;;;;;;;4968357;28;20057;-63
2024/03/15 08:20:22;;;;;;;6.18;2.30;;;;;;;;;;4972055;28;20046;-64
2024/03/15 08:22:53;;;;;;;9.68;3.05;;;;;;;;;;4987367;28;20388;-65
2024/03/15 08:25:20;;;;;;;8.00;2.50;;;;;;;;;;4975397;28;20182;-65
2024/03/15 08:27:47;;;;;;;11.18;2.30;;;;;;;;;;4955049;28;20053;-67
2024/03/15 08:30:16;;;;;;;6.03;2.80;;;;;;;;;;4957273;28;20045;-68
2024/03/15 08:32:43;;;;;;;;;;;;;;;;;;4990295;28;20324;-67
2024/03/15 08:35:16;;;;;;;8.15;2.85;;;;;;;;;;4977534;28;20038;-67
2024/03/15 08:37:43;;;;;;;7.45;2.33;;;;;;;;;;4954009;28;20574;-66
2024/03/15 08:40:12;;;;;;;9.43;1.92;;;;;;;;;;4952926;28;20053;-66
2024/03/15 08:42:40;;;;;;;8.02;2.30;;;;;;;;;;5005509;28;20050;-66
2024/03/15 08:45:08;;;;;;;7.43;1.92;;;;;;;;;;4947627;28;20228;-65
2024/03/15 08:47:39;;;;;;;8.15;2.58;;;;;;;;;;4959405;28;20140;-66
2024/03/15 08:50:11;;;;;;;7.30;2.30;;;;;;;;;;4984081;28;20061;-65
2024/03/15 08:52:41;;;;;;;7.20;2.47;;;;;;;;;;4964305;28;20298;-66
2024/03/15 08:55:10;;;;;;;6.20;2.45;;;;;;;;;;4908796;28;20157;-66
2024/03/15 08:57:45;;;;;;;6.43;2.08;;;;;;;;;;4983522;28;20365;-65
2024/03/15 09:00:19;;;;;;;6.22;2.20;;;;;;;;;;4959527;28;20054;-65
2024/03/15 09:02:49;;;;;;;4.53;2.30;;;;;;;;;;4974941;28;20050;-65
2024/03/15 09:05:19;;;;;;;6.28;2.50;;;;;;;;;;4916206;28;20051;-65
2024/03/15 09:07:48;;;;;;;7.43;2.83;;;;;;;;;;4980977;28;20136;-66
2024/03/15 09:10:15;;;;;;;12.18;5.40;;;;;;;;;;4972371;28;20220;-65
2024/03/15 09:12:43;;;;;;;8.07;3.28;;;;;;;;;;4973917;28;20062;-64
2024/03/15 09:15:12;;;;;;;5.07;2.45;;;;;;;;;;4961028;28;20512;-66
2024/03/15 09:17:40;;;;;;;8.35;3.08;;;;;;;;;;4997015;28;20065;-66
2024/03/15 09:20:18;;;;;;;5.47;2.67;;;;;;;;;;4968706;28;20135;-65
2024/03/15 09:22:45;;;;;;;;;;;;;;;;;;4993206;28;20303;-65
2024/03/15 09:25:18;;;;;;;6.10;2.42;;;;;;;;;;4983065;28;19929;-66
2024/03/15 09:27:48;;;;;;;10.55;4.00;;;;;;;;;;4990673;28;20152;-65
2024/03/15 09:30:20;;;;;;;8.02;3.30;;;;;;;;;;5005779;28;20078;-66
2024/03/15 09:32:48;;;;;;;7.07;3.80;;;;;;;;;;4990006;28;20072;-66
2024/03/15 09:35:31;;;;;;;4.60;2.35;;;;;;;;;;4975226;28;20177;-67
2024/03/15 09:37:57;;;;;;;9.18;2.85;;;;;;;;;;5000021;28;20084;-66
2024/03/15 09:40:27;;;;;;;6.50;2.58;;;;;;;;;;4956503;28;20400;-65
2024/03/15 09:42:54;;;;;;;7.28;2.70;;;;;;;;;;4973374;28;20061;-65
2024/03/15 09:45:21;;;;;;;7.55;2.95;;;;;;;;;;4954872;28;20175;-66
2024/03/15 09:47:49;;;;;;;7.70;2.53;;;;;;;;;;4984613;28;20264;-66
2024/03/15 09:50:18;;;;;;;5.32;2.20;;;;;;;;;;4956062;28;20054;-65
2024/03/15 09:52:50;;;;;;;4.15;2.40;;;;;;;;;;4973870;28;20136;-65
2024/03/15 09:55:17;;;;;;;13.30;2.60;;;;;;;;;;4978919;28;20065;-66
2024/03/15 09:57:49;;;;;;;5.75;2.30;;;;;;;;;;4951289;28;20068;-66
2024/03/15 10:00:16;;;;;;;4.32;2.13;;;;;;;;;;4954853;28;20085;-66
2024/03/15 10:02:44;;;;;;;5.55;2.15;;;;;;;;;;4989430;28;20155;-66
2024/03/15 10:05:11;;;;;;;11.37;2.70;;;;;;;;;;4952605;28;20061;-66
2024/03/15 10:07:38;;;;;;;14.18;2.33;;;;;;;;;;4992735;28;20065;-65
2024/03/15 10:10:10;;;;;;;6.82;2.22;;;;;;;;;;4953223;28;20243;-65
2024/03/15 10:12:38;;;;;;;9.95;2.03;;;;;;;;;;4989224;28;20053;-66
2024/03/15 10:15:10;;;;;;;9.98;2.08;;;;;;;;;;4922057;28;20077;-66
2024/03/15 10:17:40;;;;;;;10.93;1.83;;;;;;;;;;4993541;28;20156;-65
2024/03/15 10:20:13;;;;;;;9.38;1.98;;;;;;;;;;4987200;28;20239;-65
2024/03/15 10:22:40;;;;;;;13.13;1.75;;;;;;;;;;4955392;28;20068;-65
2024/03/15 10:25:15;;;;;;;8.02;1.25;;;;;;;;;;4959715;28;20135;-65
2024/03/15 10:27:42;;;;;;;5.63;1.60;;;;;;;;;;4963515;28;20053;-65
2024/03/15 10:30:14;;;;;;;5.35;1.52;;;;;;;;;;4916021;28;20046;-65
2024/03/15 10:32:46;;;;;;;7.43;1.88;;;;;;;;;;4998004;28;21306;-64
2024/03/15 10:35:13;;;;;;;6.93;1.60;;;;;;;;;;4990495;28;20142;-65
2024/03/15 10:37:45;;;;;;;9.55;2.42;;;;;;;;;;4973268;28;20180;-65
2024/03/15 10:40:13;;;;;;;14.05;2.10;;;;;;;;;;4954940;28;20049;-65
2024/03/15 10:42:41;;;;;;;6.83;1.87;;;;;;;;;;4960207;28;20076;-67
2024/03/15 10:45:08;;;;;;;6.25;1.52;;;;;;;;;;4956876;28;20308;-65
2024/03/15 10:47:35;;;;;;;9.13;2.10;;;;;;;;;;4970835;28;20061;-65
2024/03/15 10:50:08;;;;;;;9.20;2.40;;;;;;;;;;4980127;28;20064;-65
2024/03/15 10:52:36;;;;;;;7.88;1.85;;;;;;;;;;4996573;28;20085;-65
2024/03/15 10:55:10;;;;;;;5.70;1.95;;;;;;;;;;4972788;28;20068;-65
2024/03/15 10:57:48;;;;;;;4.70;1.50;;;;;;;;;;4962258;28;20054;-68
2024/03/15 11:00:18;;;;;;;5.53;1.70;;;;;;;;;;4884021;28;20059;-67
2024/03/15 11:02:45;;;;;;;9.10;1.52;;;;;;;;;;4977345;28;20164;-66
2024/03/15 11:05:17;;;;;;;10.18;1.75;;;;;;;;;;4955279;28;20068;-65
2024/03/15 11:07:49;;;;;;;5.63;1.58;;;;;;;;;;4956238;28;20046;-65
2024/03/15 11:10:31;;;;;;;4.28;1.50;;;;;;;;;;4918981;28;20058;-67
2024/03/15 11:13:00;;;;;;;5.13;1.55;;;;;;;;;;4972369;28;20053;-66
2024/03/15 11:15:32;;;;;;;7.38;1.58;;;;;;;;;;4953808;28;20058;-66
2024/03/15 11:18:03;;;;;;;11.95;1.85;;;;;;;;;;4940161;28;20139;-67
2024/03/15 11:20:49;;;;;;;5.32;1.30;;;;;;;;;;4900790;28;20179;-65
2024/03/15 11:23:31;;;;;;;2.97;1.30;;;;;;;;;;4925473;28;20047;-65
2024/03/15 11:26:01;;;;;;;7.57;1.55;;;;;;;;;;4925331;28;20057;-65
2024/03/15 11:28:31;;;;;;;7.25;1.60;;;;;;;;;;4922685;28;20141;-64
2024/03/15 11:31:02;;;;;;;7.05;1.73;;;;;;;;;;4857100;29;20079;-66
2024/03/15 11:33:29;;;;;;;7.93;1.27;;;;;;;;;;4873250;29;20103;-67
2024/03/15 11:35:57;;;;;;;5.85;1.75;;;;;;;;;;4889514;29;20064;-65
2024/03/15 11:38:28;;;;;;;10.77;1.45;;;;;;;;;;4871302;29;20063;-65
2024/03/15 11:43:37;;;;;;;11.82;1.60;;;;;;;;;;4846180;29;20056;-68
2024/03/15 11:46:11;;;;;;;4.60;1.35;;;;;;;;;;4856316;29;20202;-65
2024/03/15 11:48:38;;;;;;;6.35;1.42;;;;;;;;;;4888754;28;20051;-66
2024/03/15 11:51:06;;;;;;;6.82;1.67;;;;;;;;;;4882209;28;20221;-65
2024/03/15 11:53:34;;;;;;;5.90;1.42;;;;;;;;;;4886160;29;20174;-66
2024/03/15 11:56:02;;;;;;;5.13;1.50;;;;;;;;;;4924751;28;20059;-66
2024/03/15 11:58:31;;;;;;;3.45;1.33;;;;;;;;;;4945461;28;20083;-67
2024/03/15 12:01:10;;;;;;;9.18;1.20;;;;;;;;;;4833224;29;20076;-66
2024/03/15 12:03:47;;;;;;;;;;;;;;;;;;;;;
2024/03/15 12:06:26;;;;;;;5.63;1.27;;;;;;;;;;4883228;29;20082;-67
2024/03/15 12:08:55;;;;;;;4.25;1.55;;;;;;;;;;4914594;29;20066;-65
2024/03/15 12:11:23;;;;;;;3.72;1.48;;;;;;;;;;4858742;28;20229;-65
2024/03/15 12:13:53;;;;;;;4.45;1.13;;;;;;;;;;4951741;28;20058;-67
2024/03/15 12:16:20;;;;;;;2.53;1.45;;;;;;;;;;4983681;28;20054;-65
2024/03/15 12:18:47;;;;;;;4.15;1.45;;;;;;;;;;4957843;28;20054;-67
2024/03/15 12:21:14;;;;;;;5.57;1.88;;;;;;;;;;4919826;28;20218;-66
2024/03/15 12:23:41;;;;;;;12.50;2.95;;;;;;;;;;4999474;28;20058;-65
2024/03/15 12:26:11;;;;;;;13.50;4.05;;;;;;;;;;4986704;28;20054;-66
2024/03/15 12:28:40;;;;;;;2.22;1.23;;;;;;;;;;4958654;28;20054;-68
2024/03/15 12:31:11;;;;;;;6.18;1.73;;;;;;;;;;4964874;28;20076;-65
2024/03/15 12:33:38;;;;;;;11.30;2.05;;;;;;;;;;4993975;28;20058;-65
2024/03/15 12:36:09;;;;;;;8.30;2.00;;;;;;;;;;4975272;28;20082;-66
2024/03/15 12:38:36;;;;;;;4.45;1.50;;;;;;;;;;4955398;28;20062;-66
2024/03/15 12:41:03;;;;;;;6.45;1.92;;;;;;;;;;4969902;28;20053;-66
2024/03/15 12:43:30;;;;;;;5.47;1.50;;;;;;;;;;5001425;28;20058;-66
2024/03/15 12:45:57;;;;;;;7.18;1.90;;;;;;;;;;4989658;28;20212;-66
2024/03/15 12:48:24;;;;;;;9.25;2.90;;;;;;;;;;4951168;28;20058;-67
2024/03/15 12:50:51;;;;;;;10.77;5.38;;;;;;;;;;4957846;28;20064;-66
2024/03/15 12:53:18;;;;;;;8.25;2.53;;;;;;;;;;5005062;28;20077;-65
2024/03/15 12:55:45;;;;;;;4.65;2.20;;;;;;;;;;4990252;28;20081;-66
2024/03/15 12:58:22;;;;;;;3.25;1.75;;;;;;;;;;4970399;28;20058;-66
2024/03/15 13:00:49;;;;;;;7.93;2.10;;;;;;;;;;4944917;28;20061;-68
2024/03/15 13:03:20;;;;;;;7.55;2.10;;;;;;;;;;4981471;28;20372;-67
2024/03/15 13:05:47;;;;;;;6.25;2.17;;;;;;;;;;4989537;28;20070;-65
2024/03/15 13:08:23;;;;;;;4.43;1.48;;;;;;;;;;4971761;28;20054;-66
2024/03/15 13:10:50;;;;;;;7.70;2.13;;;;;;;;;;4909333;28;20057;-65
2024/03/15 13:13:17;;;;;;;4.82;2.10;;;;;;;;;;4973857;28;20069;-66
2024/03/15 13:15:47;;;;;;;7.15;2.38;;;;;;;;;;4975909;28;20100;-66
2024/03/15 13:20:58;;;;;;;3.63;1.90;;;;;;;;;;4935822;28;20151;-68
2024/03/15 13:23:25;;;;;;;6.47;2.03;;;;;;;;;;4975706;28;20057;-66
2024/03/15 13:25:53;;;;;;;4.78;1.80;;;;;;;;;;4958352;28;21005;-65
2024/03/15 13:28:22;;;;;;;3.65;1.73;;;;;;;;;;4971806;28;20065;-64
2024/03/15 13:30:49;;;;;;;6.85;1.80;;;;;;;;;;4937966;28;20061;-66
2024/03/15 13:33:20;;;;;;;6.10;1.65;;;;;;;;;;4977125;28;20066;-65
2024/03/15 13:35:50;;;;;;;1.85;1.30;;;;;;;;;;4990882;28;20066;-67
2024/03/15 13:38:17;;;;;;;2.38;1.40;;;;;;;;;;4970357;28;20045;-64
2024/03/15 13:40:48;;;;;;;2.97;1.60;;;;;;;;;;5002025;28;20061;-67
2024/03/15 13:43:17;;;;;;;;;;;;;;;;;;4990379;28;20068;-65
2024/03/15 13:45:56;;;;;;;9.10;3.17;;;;;;;;;;4989969;28;19929;-66
2024/03/15 13:48:42;;;;;;;8.60;3.67;;;;;;;;;;4989743;28;20568;-66
2024/03/15 13:51:17;;;;;;;6.30;2.00;;;;;;;;;;4930073;28;20073;-68
2024/03/15 13:53:47;;;;;;;5.90;1.80;;;;;;;;;;4970365;28;20054;-67
2024/03/15 13:56:18;;;;;;;6.10;1.75;;;;;;;;;;4953502;28;20144;-68
2024/03/15 13:58:48;;;;;;;4.38;1.50;;;;;;;;;;4958570;28;20085;-67
2024/03/15 14:01:32;;;;;;;;;;;;;;;;;;;;;
2024/03/15 14:04:05;;;;;;;4.32;1.63;;;;;;;;;;4928093;28;20112;-67
2024/03/15 14:06:46;;;;;;;3.28;1.80;;;;;;;;;;4933022;28;20339;-65
2024/03/15 14:12:03;;;;;;;4.15;1.42;;;;;;;;;;4897045;28;20066;-65
2024/03/15 14:14:30;;;;;;;7.00;1.65;;;;;;;;;;4893199;28;20117;-66
2024/03/15 14:16:59;;;;;;;3.03;1.50;;;;;;;;;;4957766;28;20081;-66
2024/03/15 14:19:30;;;;;;;4.90;1.50;;;;;;;;;;5012009;28;20131;-66
2024/03/15 14:21:58;;;;;;;3.92;1.70;;;;;;;;;;4987855;28;20068;-65
2024/03/15 14:24:24;;;;;;;2.83;1.40;;;;;;;;;;4969800;28;20077;-65
2024/03/15 14:26:51;;;;;;;2.50;1.25;;;;;;;;;;4973075;28;20084;-66
2024/03/15 14:29:20;;;;;;;5.50;1.40;;;;;;;;;;4958535;28;20184;-68
2024/03/15 14:31:52;;;;;;;6.68;1.13;;;;;;;;;;4956249;28;20095;-66
2024/03/15 14:34:19;;;;;;;4.32;1.20;;;;;;;;;;4965786;28;20054;-66
2024/03/15 14:36:46;;;;;;;2.60;1.02;;;;;;;;;;4954417;28;20061;-67
2024/03/15 14:39:13;;;;;;;2.72;0.88;;;;;;;;;;4955862;28;20149;-68
2024/03/15 14:41:40;;;;;;;5.13;0.80;;;;;;;;;;4966901;28;20049;-68
2024/03/15 14:44:10;;;;;;;2.03;0.60;;;;;;;;;;4986127;28;20081;-67
2024/03/15 14:46:39;;;;;;;4.47;0.90;;;;;;;;;;4954796;28;20365;-66
2024/03/15 14:49:06;;;;;;;3.58;0.80;;;;;;;;;;4988425;28;20057;-66
2024/03/15 14:51:33;;;;;;;4.35;1.48;;;;;;;;;;4953884;28;20061;-66
2024/03/15 14:54:21;;;;;;;5.07;0.80;;;;;;;;;;4972344;28;20188;-66
2024/03/15 14:56:48;;;;;;;5.47;1.02;;;;;;;;;;4960328;28;20155;-65
2024/03/15 14:59:15;;;;;;;4.13;0.80;;;;;;;;;;4988032;28;20062;-66
2024/03/15 15:01:42;;;;;;;2.25;0.73;;;;;;;;;;4972222;28;20143;-66
2024/03/15 15:04:09;;;;;;;4.35;1.00;;;;;;;;;;4989175;28;20058;-66